Strona główna
METAR-TAF:

METAR-TAF

Lotnisko :

York Airport

York, Pensylwania, Stany Zjednoczone

Szerokość geograficzna: 39-55-10N, Długość geograficzna: 076-52-37W, wysokość: 146 m

Aktualna obserwacja pogody

Raport powstał 49 minut temu, godzina 18:53 UTC
Wiatr 6 kt z kierunków zmiennych w porywach dochodzący do 15 kt
Temperatura 6°C
Wilgotność 49%
Ciśnienie 1028 hPa
Widzialność: 16.1 km
bezchmurnie

METAR: KTHV 081853Z AUTO VRB06G15KT 10SM CLR 06/M04 A3037 RMK AO2 SLP292 T00611044

czas: 14:42 (19:42 UTC)


TAF: brakujący

Obserwacja i prognoza pogody dla ponad 4000 lotnisk (raport METAR i TAF).

Dostępne stacje oznaczono żółtymi i czerwonymi punktami na mapie.

Najedź kursorem aby zobaczyć nazwę stacji.

Kliknij aby zobaczyć obserwacje i prognozy pogody.

Aby zmienić mapę: kliknij na zielony przycisk z czarnym krzyżykiem, aby powiększyć; na zielony przycisk z myślnikiem, aby pomniejszyć; na zielone strzałki, aby przejść do map sąsiednich.


METAR-TAF: